createdAt,value
2019-05-21T00:00:51.004Z,6.00
2019-05-21T00:03:43.298Z,6.87
2019-05-21T00:06:35.121Z,5.95
2019-05-21T00:09:30.328Z,5.72
2019-05-21T00:12:22.117Z,6.92
2019-05-21T00:15:12.040Z,7.20
2019-05-21T00:18:04.546Z,6.22
2019-05-21T00:20:53.714Z,6.35
2019-05-21T00:23:43.008Z,6.00
2019-05-21T00:26:32.802Z,7.40
2019-05-21T00:30:17.069Z,6.20
2019-05-21T00:34:00.910Z,5.97
2019-05-21T00:37:45.185Z,7.25
2019-05-21T00:41:29.135Z,5.85
2019-05-21T00:44:18.118Z,6.65
2019-05-21T00:47:10.226Z,7.12
2019-05-21T00:49:59.526Z,6.08
2019-05-21T00:52:48.352Z,6.28
2019-05-21T00:55:37.515Z,5.90
2019-05-21T00:58:26.764Z,5.92
2019-05-21T01:01:16.260Z,10.35
2019-05-21T01:04:05.195Z,7.22
2019-05-21T01:06:54.524Z,7.15
2019-05-21T01:09:43.548Z,7.62
2019-05-21T01:12:33.544Z,7.53
2019-05-21T01:15:22.803Z,8.73
2019-05-21T01:18:12.289Z,9.03
2019-05-21T01:21:01.265Z,16.25
2019-05-21T01:23:50.503Z,8.28
2019-05-21T01:26:40.195Z,9.63
2019-05-21T01:29:28.984Z,8.10
2019-05-21T01:32:18.328Z,8.75
2019-05-21T01:35:16.667Z,7.85
2019-05-21T01:37:58.302Z,12.07
2019-05-21T01:40:47.369Z,9.33
2019-05-21T01:43:36.739Z,10.23
2019-05-21T01:46:25.493Z,10.05
2019-05-21T01:49:14.998Z,14.63
2019-05-21T01:52:04.228Z,14.87
2019-05-21T01:54:53.410Z,12.65
2019-05-21T01:57:42.609Z,10.38
2019-05-21T02:00:31.733Z,15.95
2019-05-21T02:03:21.434Z,14.70
2019-05-21T02:06:10.430Z,11.18
2019-05-21T02:09:00.165Z,13.98
2019-05-21T02:11:49.750Z,13.95
2019-05-21T02:14:38.909Z,16.45
2019-05-21T02:17:28.590Z,12.68
2019-05-21T02:20:17.860Z,17.27
2019-05-21T02:23:07.566Z,13.22
2019-05-21T02:25:57.090Z,14.90
2019-05-21T02:28:45.992Z,12.50
2019-05-21T02:31:35.279Z,14.83
2019-05-21T02:34:24.515Z,13.62
2019-05-21T02:37:14.097Z,13.30
2019-05-21T02:40:03.591Z,13.62
2019-05-21T02:42:52.533Z,16.45
2019-05-21T02:45:41.670Z,15.23
2019-05-21T02:48:31.090Z,18.82
2019-05-21T02:51:19.612Z,13.50
2019-05-21T02:54:08.482Z,14.70
2019-05-21T02:56:57.492Z,15.30
2019-05-21T02:59:48.506Z,14.33
2019-05-21T03:02:39.459Z,17.90
2019-05-21T03:05:28.359Z,16.95
2019-05-21T03:08:17.399Z,18.05
2019-05-21T03:11:06.490Z,15.53
2019-05-21T03:13:55.828Z,19.23
2019-05-21T03:16:45.052Z,16.15
2019-05-21T03:19:34.789Z,16.60
2019-05-21T03:22:23.231Z,18.23
2019-05-21T03:25:13.425Z,22.37
2019-05-21T03:28:02.755Z,20.32
2019-05-21T03:30:51.801Z,17.23
2019-05-21T03:33:41.130Z,19.07
2019-05-21T03:36:33.858Z,19.52
2019-05-21T03:39:21.917Z,15.95
2019-05-21T03:42:10.685Z,23.10
2019-05-21T03:45:01.118Z,19.25
2019-05-21T03:47:50.951Z,20.55
2019-05-21T03:50:41.370Z,19.98
2019-05-21T03:53:31.035Z,17.60
2019-05-21T03:56:19.984Z,20.32
2019-05-21T03:59:09.674Z,20.48
2019-05-21T04:01:58.744Z,19.57
2019-05-21T04:04:47.892Z,23.07
2019-05-21T04:07:37.280Z,23.02
2019-05-21T04:10:26.738Z,20.27
2019-05-21T04:13:15.947Z,18.95
2019-05-21T04:16:19.155Z,19.95
2019-05-21T04:19:15.854Z,23.15
2019-05-21T04:22:09.719Z,21.55
2019-05-21T04:24:59.428Z,22.73
2019-05-21T04:27:48.648Z,22.87
2019-05-21T04:30:37.746Z,24.15
2019-05-21T04:33:26.605Z,23.50
2019-05-21T04:36:15.875Z,23.50
2019-05-21T04:39:07.201Z,22.95
2019-05-21T04:41:56.056Z,25.30
2019-05-21T04:44:45.423Z,26.57
2019-05-21T04:47:34.904Z,26.80
2019-05-21T04:50:24.169Z,21.17
2019-05-21T04:53:13.261Z,21.65
2019-05-21T04:56:02.916Z,21.87
2019-05-21T04:58:51.868Z,25.45
2019-05-21T05:01:41.149Z,23.30
2019-05-21T05:04:30.224Z,22.67
2019-05-21T05:07:28.214Z,22.15
2019-05-21T05:10:11.008Z,27.35
2019-05-21T05:13:00.030Z,22.27
2019-05-21T05:15:49.230Z,26.65
2019-05-21T05:18:38.292Z,23.27
2019-05-21T05:21:27.764Z,21.35
2019-05-21T05:24:16.814Z,25.37
2019-05-21T05:27:06.327Z,25.65
2019-05-21T05:29:55.682Z,22.98
2019-05-21T05:32:44.655Z,23.35
2019-05-21T05:35:34.125Z,31.55
2019-05-21T05:38:23.501Z,28.05
2019-05-21T05:41:13.038Z,21.05
2019-05-21T05:44:02.122Z,23.35
2019-05-21T05:46:51.291Z,28.27
2019-05-21T05:49:44.766Z,28.77
2019-05-21T05:52:33.722Z,25.40
2019-05-21T05:55:22.890Z,28.25
2019-05-21T05:58:12.354Z,25.77
2019-05-21T06:01:01.840Z,28.23
2019-05-21T06:03:50.646Z,25.90
2019-05-21T06:06:40.386Z,25.27
2019-05-21T06:09:29.340Z,26.73
2019-05-21T06:12:22.058Z,31.62
2019-05-21T06:15:11.734Z,31.37
2019-05-21T06:18:01.143Z,30.60
2019-05-21T06:20:50.825Z,29.25
2019-05-21T06:23:39.359Z,27.82
2019-05-21T06:26:29.053Z,28.12
2019-05-21T06:29:18.123Z,27.67
2019-05-21T06:32:07.539Z,28.02
2019-05-21T06:34:56.836Z,34.35
2019-05-21T06:37:46.439Z,39.25
2019-05-21T06:40:38.448Z,29.42
2019-05-21T06:43:26.828Z,35.23
2019-05-21T06:46:16.100Z,33.45
2019-05-21T06:49:05.078Z,31.17
2019-05-21T06:51:54.117Z,33.92
2019-05-21T06:54:42.667Z,35.13
2019-05-21T06:57:32.108Z,34.78
2019-05-21T07:00:20.980Z,38.25
2019-05-21T07:03:09.862Z,45.17
2019-05-21T07:05:59.729Z,36.77
2019-05-21T07:08:49.837Z,40.17
2019-05-21T07:11:39.253Z,34.10
2019-05-21T07:14:28.224Z,39.00
2019-05-21T07:17:17.008Z,50.15
2019-05-21T07:20:09.822Z,37.20
2019-05-21T07:22:59.092Z,41.35
2019-05-21T07:25:47.993Z,40.98
2019-05-21T07:28:36.952Z,42.88
2019-05-21T07:31:26.046Z,40.08
2019-05-21T07:34:15.733Z,34.23
2019-05-21T07:37:04.192Z,35.52
2019-05-21T07:39:53.339Z,36.45
2019-05-21T07:42:41.804Z,39.88
2019-05-21T07:45:30.963Z,31.93
2019-05-21T07:48:20.549Z,38.45
2019-05-21T07:51:10.018Z,40.30
2019-05-21T07:53:58.942Z,32.90
2019-05-21T07:56:48.153Z,40.78
2019-05-21T07:59:37.122Z,36.80
2019-05-21T08:02:26.123Z,30.65
2019-05-21T08:05:15.350Z,36.17
2019-05-21T08:08:05.326Z,32.65
2019-05-21T08:10:54.403Z,38.20
2019-05-21T08:13:43.226Z,38.42
2019-05-21T08:16:32.614Z,31.10
2019-05-21T08:19:22.108Z,30.65
2019-05-21T08:22:11.665Z,32.10
2019-05-21T08:25:00.690Z,36.28
2019-05-21T08:27:50.407Z,32.95
2019-05-21T08:30:39.701Z,31.05
2019-05-21T08:33:29.777Z,33.55
2019-05-21T08:36:19.303Z,32.50
2019-05-21T08:39:09.638Z,29.67
2019-05-21T08:41:59.087Z,27.20
2019-05-21T08:44:48.687Z,32.90
2019-05-21T08:47:38.100Z,25.52
2019-05-21T08:50:27.492Z,34.25
2019-05-21T08:53:16.446Z,27.90
2019-05-21T08:56:05.865Z,24.30
2019-05-21T08:58:55.142Z,23.20
2019-05-21T09:01:44.548Z,27.82
2019-05-21T09:05:18.246Z,28.67
2019-05-21T09:07:24.292Z,24.57
2019-05-21T09:10:14.349Z,31.23
2019-05-21T09:13:03.844Z,29.52
2019-05-21T09:15:52.793Z,28.23
2019-05-21T09:18:42.071Z,23.05
2019-05-21T09:21:30.969Z,30.85
2019-05-21T09:24:20.719Z,25.62
2019-05-21T09:27:10.005Z,24.25
2019-05-21T09:29:59.259Z,30.20
2019-05-21T09:32:48.408Z,25.88
2019-05-21T09:35:38.103Z,32.63
2019-05-21T09:38:27.130Z,29.27
2019-05-21T09:41:15.632Z,32.75
2019-05-21T09:44:05.032Z,28.17
2019-05-21T09:46:54.054Z,25.65
2019-05-21T09:49:43.128Z,22.70
2019-05-21T09:52:32.490Z,30.00
2019-05-21T09:55:21.965Z,29.20
2019-05-21T09:58:11.024Z,25.82
2019-05-21T10:01:09.283Z,22.27
2019-05-21T10:04:00.334Z,23.30
2019-05-21T10:06:49.357Z,24.67
2019-05-21T10:09:38.366Z,23.50
2019-05-21T10:12:27.641Z,29.92
2019-05-21T10:15:17.087Z,25.50
2019-05-21T10:18:06.278Z,27.37
2019-05-21T10:20:55.534Z,23.67
2019-05-21T10:23:44.583Z,23.80
2019-05-21T10:26:34.610Z,24.27
2019-05-21T10:29:24.261Z,23.42
2019-05-21T10:32:13.612Z,25.45
2019-05-21T10:35:03.960Z,22.15
2019-05-21T10:37:55.231Z,24.27
2019-05-21T10:40:44.817Z,28.60
2019-05-21T10:43:34.148Z,23.50
2019-05-21T10:46:23.246Z,21.77
2019-05-21T10:49:12.398Z,24.35
2019-05-21T10:52:01.699Z,21.42
2019-05-21T10:54:50.619Z,23.52
2019-05-21T10:57:40.224Z,26.60
2019-05-21T11:00:30.775Z,24.37
2019-05-21T11:03:37.932Z,29.43
2019-05-21T11:06:26.868Z,22.85
2019-05-21T11:09:17.538Z,27.03
2019-05-21T11:12:07.878Z,24.90
2019-05-21T11:14:56.336Z,23.10
2019-05-21T11:18:07.140Z,23.80
2019-05-21T11:20:36.439Z,30.10
2019-05-21T11:23:25.988Z,30.93
2019-05-21T11:26:15.775Z,34.43
2019-05-21T11:29:05.220Z,23.17
2019-05-21T11:31:57.440Z,25.97
2019-05-21T11:34:45.067Z,25.47
2019-05-21T11:37:34.389Z,23.93
2019-05-21T11:40:25.607Z,23.57
2019-05-21T11:43:15.168Z,24.60
2019-05-21T11:46:04.646Z,21.33
2019-05-21T11:48:53.860Z,31.20
2019-05-21T11:51:43.090Z,23.70
2019-05-21T11:54:31.747Z,22.07
2019-05-21T11:57:20.993Z,26.10
2019-05-21T12:00:12.804Z,34.13
2019-05-21T12:03:02.216Z,33.00
2019-05-21T12:05:50.952Z,22.43
2019-05-21T12:08:55.165Z,31.33
2019-05-21T12:11:31.054Z,28.03
2019-05-21T12:14:20.452Z,23.67
2019-05-21T12:17:09.791Z,24.07
2019-05-21T12:19:58.426Z,22.97
2019-05-21T12:22:47.496Z,24.33
2019-05-21T12:25:36.025Z,25.70
2019-05-21T12:28:25.214Z,28.87
2019-05-21T12:31:14.369Z,27.30
2019-05-21T12:34:03.864Z,26.77
2019-05-21T12:36:52.821Z,24.80
2019-05-21T12:39:42.502Z,23.57
2019-05-21T12:42:31.500Z,24.20
2019-05-21T12:45:21.043Z,22.70
2019-05-21T12:48:10.619Z,27.67
2019-05-21T12:50:59.675Z,29.70
2019-05-21T12:53:48.814Z,33.20
2019-05-21T12:56:40.803Z,34.10
2019-05-21T12:59:29.354Z,31.23
2019-05-21T13:02:18.923Z,34.67
2019-05-21T13:05:11.352Z,42.13
2019-05-21T13:07:59.567Z,36.80
2019-05-21T13:10:48.661Z,32.50
2019-05-21T13:13:37.016Z,35.97
2019-05-21T13:16:26.285Z,34.40
2019-05-21T13:19:15.743Z,31.33
2019-05-21T13:22:05.399Z,33.70
2019-05-21T13:24:54.264Z,31.30
2019-05-21T13:27:43.286Z,28.77
2019-05-21T13:30:32.472Z,32.60
2019-05-21T13:33:22.103Z,33.47
2019-05-21T13:36:11.661Z,38.27
2019-05-21T13:39:00.539Z,36.13
2019-05-21T13:41:49.647Z,42.10
2019-05-21T13:44:38.464Z,36.63
2019-05-21T13:47:27.675Z,38.30
2019-05-21T13:50:16.702Z,40.63
2019-05-21T13:53:05.760Z,38.73
2019-05-21T13:55:54.841Z,39.25
2019-05-21T13:58:44.197Z,37.08
2019-05-21T14:01:40.542Z,35.95
2019-05-21T14:04:24.535Z,45.38
2019-05-21T14:07:13.893Z,33.88
2019-05-21T14:10:14.092Z,42.90
2019-05-21T14:12:54.347Z,42.13
2019-05-21T14:15:43.542Z,42.60
2019-05-21T14:18:32.561Z,38.75
2019-05-21T14:21:22.246Z,39.98
2019-05-21T14:24:10.995Z,33.15
2019-05-21T14:27:00.471Z,32.85
2019-05-21T14:29:49.718Z,35.73
2019-05-21T14:32:39.152Z,34.63
2019-05-21T14:35:28.272Z,36.10
2019-05-21T14:38:17.861Z,41.83
2019-05-21T14:41:06.910Z,42.62
2019-05-21T14:43:56.604Z,33.90
2019-05-21T14:46:46.071Z,36.05
2019-05-21T14:49:35.146Z,43.35
2019-05-21T14:52:24.300Z,37.23
2019-05-21T14:55:13.787Z,45.25
2019-05-21T14:58:02.963Z,34.70
2019-05-21T15:00:52.220Z,32.00
2019-05-21T15:03:41.087Z,33.00
2019-05-21T15:06:29.722Z,34.48
2019-05-21T15:09:18.797Z,39.85
2019-05-21T15:12:07.701Z,38.33
2019-05-21T15:14:56.938Z,39.42
2019-05-21T15:17:46.411Z,40.38
2019-05-21T15:20:53.085Z,38.05
2019-05-21T15:23:42.849Z,37.05
2019-05-21T15:26:33.059Z,37.15
2019-05-21T15:29:22.373Z,37.00
2019-05-21T15:32:11.799Z,35.03
2019-05-21T15:35:01.520Z,37.70
2019-05-21T15:37:50.340Z,31.05
2019-05-21T15:40:39.502Z,28.98
2019-05-21T15:43:28.918Z,28.95
2019-05-21T15:46:18.560Z,29.63
2019-05-21T15:49:07.348Z,28.42
2019-05-21T15:51:56.693Z,23.83
2019-05-21T15:54:46.593Z,22.35
2019-05-21T15:57:35.521Z,18.82
2019-05-21T16:00:24.802Z,23.30
2019-05-21T16:03:13.278Z,18.60
2019-05-21T16:06:02.556Z,17.05
2019-05-21T16:08:51.798Z,16.85
2019-05-21T16:11:41.263Z,18.25
2019-05-21T16:14:30.574Z,21.42
2019-05-21T16:17:19.699Z,18.70
2019-05-21T16:20:09.698Z,16.40
2019-05-21T16:22:58.854Z,20.43
2019-05-21T16:25:48.300Z,20.90
2019-05-21T16:28:37.088Z,18.73
2019-05-21T16:31:25.981Z,16.80
2019-05-21T16:34:15.322Z,19.25
2019-05-21T16:37:04.510Z,23.02
2019-05-21T16:39:53.553Z,23.92
2019-05-21T16:42:42.496Z,21.33
2019-05-21T16:45:32.188Z,23.73
2019-05-21T16:48:21.496Z,21.25
2019-05-21T16:51:10.834Z,20.65
2019-05-21T16:54:00.259Z,23.05
2019-05-21T16:56:49.694Z,24.92
2019-05-21T16:59:38.764Z,18.62
2019-05-21T17:02:28.420Z,21.73
2019-05-21T17:05:17.806Z,20.60
2019-05-21T17:08:07.165Z,22.65
2019-05-21T17:10:56.101Z,23.15
2019-05-21T17:13:45.213Z,22.07
2019-05-21T17:16:34.160Z,26.17
2019-05-21T17:19:23.009Z,23.65
2019-05-21T17:22:12.290Z,21.52
2019-05-21T17:25:01.369Z,30.75
2019-05-21T17:27:50.698Z,33.02
2019-05-21T17:30:40.387Z,39.35
2019-05-21T17:33:29.768Z,32.10
2019-05-21T17:36:19.039Z,30.70
2019-05-21T17:39:08.215Z,27.70
2019-05-21T17:41:57.684Z,27.80
2019-05-21T17:44:46.871Z,27.80
2019-05-21T17:47:36.430Z,35.78
2019-05-21T17:50:25.814Z,30.30
2019-05-21T17:53:15.270Z,27.95
2019-05-21T17:56:04.616Z,26.00
2019-05-21T17:58:53.974Z,35.43
2019-05-21T18:01:44.004Z,35.48
2019-05-21T18:04:34.411Z,32.15
2019-05-21T18:07:24.190Z,32.03
2019-05-21T18:10:16.319Z,34.03
2019-05-21T18:13:06.000Z,31.42
2019-05-21T18:15:56.615Z,31.73
2019-05-21T18:18:46.377Z,33.55
2019-05-21T18:21:36.058Z,36.42
2019-05-21T18:24:25.648Z,33.45
2019-05-21T18:27:14.913Z,30.12
2019-05-21T18:30:05.607Z,35.10
2019-05-21T18:32:55.902Z,38.70
2019-05-21T18:35:45.425Z,30.40
2019-05-21T18:38:35.415Z,37.88
2019-05-21T18:41:25.021Z,34.27
2019-05-21T18:44:14.410Z,20.90
2019-05-21T18:47:02.893Z,23.45
2019-05-21T18:49:52.436Z,25.37
2019-05-21T18:52:41.506Z,27.65
2019-05-21T18:55:30.604Z,28.25
2019-05-21T18:58:19.492Z,25.48
2019-05-21T19:01:08.172Z,22.70
2019-05-21T19:03:58.215Z,29.80
2019-05-21T19:06:47.612Z,28.87
2019-05-21T19:09:37.067Z,24.37
2019-05-21T19:12:37.469Z,26.65
2019-05-21T19:15:17.048Z,27.45
2019-05-21T19:18:06.388Z,29.42
2019-05-21T19:20:55.167Z,25.27
2019-05-21T19:23:44.709Z,26.82
2019-05-21T19:26:33.799Z,27.60
2019-05-21T19:29:23.254Z,28.83
2019-05-21T19:32:12.628Z,18.25
2019-05-21T19:35:02.204Z,19.73
2019-05-21T19:37:51.356Z,33.88
2019-05-21T19:40:40.321Z,23.67
2019-05-21T19:43:29.426Z,18.92
2019-05-21T19:46:18.755Z,23.32
2019-05-21T19:49:08.197Z,19.65
2019-05-21T19:51:57.603Z,26.00
2019-05-21T19:54:47.070Z,23.45
2019-05-21T19:57:36.339Z,38.02
2019-05-21T20:00:29.399Z,22.95
2019-05-21T20:03:19.586Z,24.02
2019-05-21T20:06:08.545Z,26.82
2019-05-21T20:08:58.139Z,24.92
2019-05-21T20:11:46.818Z,27.52
2019-05-21T20:14:36.983Z,23.83
2019-05-21T20:17:29.405Z,27.40
2019-05-21T20:20:21.304Z,26.85
2019-05-21T20:23:12.362Z,28.90
2019-05-21T20:26:02.150Z,29.05
2019-05-21T20:28:51.490Z,27.00
2019-05-21T20:31:41.600Z,26.33
2019-05-21T20:34:31.282Z,23.92
2019-05-21T20:37:21.882Z,26.70
2019-05-21T20:40:12.818Z,30.50
2019-05-21T20:43:02.366Z,22.48
2019-05-21T20:45:51.944Z,25.20
2019-05-21T20:48:40.662Z,20.90
2019-05-21T20:51:31.303Z,24.25
2019-05-21T20:54:21.827Z,22.25
2019-05-21T20:57:11.592Z,22.48
2019-05-21T21:00:01.156Z,27.30
2019-05-21T21:02:52.475Z,22.67
2019-05-21T21:05:42.165Z,23.12
2019-05-21T21:08:33.437Z,19.77
2019-05-21T21:11:23.463Z,21.87
2019-05-21T21:14:17.959Z,22.58
2019-05-21T21:17:06.094Z,26.02
2019-05-21T21:19:55.770Z,27.77
2019-05-21T21:22:45.126Z,26.33
2019-05-21T21:25:34.532Z,23.55
2019-05-21T21:28:23.864Z,25.20
2019-05-21T21:31:13.366Z,20.48
2019-05-21T21:34:04.605Z,28.62
2019-05-21T21:36:54.466Z,21.93
2019-05-21T21:39:44.247Z,25.77
2019-05-21T21:42:34.543Z,17.48
2019-05-21T21:45:23.708Z,18.48
2019-05-21T21:48:14.511Z,19.20
2019-05-21T21:51:05.587Z,23.42
2019-05-21T21:53:55.343Z,18.55
2019-05-21T21:56:45.012Z,19.15
2019-05-21T21:59:33.873Z,16.67
2019-05-21T22:02:31.025Z,15.85
2019-05-21T22:05:22.405Z,20.72
2019-05-21T22:08:11.790Z,16.82
2019-05-21T22:11:01.694Z,15.75
2019-05-21T22:13:51.444Z,18.32
2019-05-21T22:16:40.212Z,17.35
2019-05-21T22:19:29.690Z,17.45
2019-05-21T22:22:19.648Z,15.58
2019-05-21T22:25:09.145Z,21.60
2019-05-21T22:27:59.027Z,21.62
2019-05-21T22:30:48.484Z,20.45
2019-05-21T22:33:37.974Z,20.30
2019-05-21T22:36:27.026Z,18.87
2019-05-21T22:39:20.544Z,19.85
2019-05-21T22:42:09.983Z,22.32
2019-05-21T22:45:08.105Z,23.62
2019-05-21T22:47:51.314Z,23.02
2019-05-21T22:50:40.132Z,19.05
2019-05-21T22:53:29.518Z,21.25
2019-05-21T22:56:18.237Z,21.75
2019-05-21T22:59:07.551Z,21.55
2019-05-21T23:01:58.345Z,20.02
2019-05-21T23:04:47.193Z,23.18
2019-05-21T23:07:36.180Z,26.60
2019-05-21T23:10:25.647Z,24.40
2019-05-21T23:13:14.619Z,24.80
2019-05-21T23:16:04.095Z,27.60
2019-05-21T23:18:53.617Z,25.45
2019-05-21T23:21:43.916Z,25.17
2019-05-21T23:24:33.433Z,30.12
2019-05-21T23:27:23.061Z,26.27
2019-05-21T23:30:15.970Z,27.02
2019-05-21T23:33:06.412Z,31.75
2019-05-21T23:35:55.938Z,33.78
2019-05-21T23:38:45.330Z,25.57
2019-05-21T23:41:34.503Z,36.80
2019-05-21T23:44:23.824Z,25.35
2019-05-21T23:47:13.936Z,29.85
2019-05-21T23:50:04.743Z,24.98
2019-05-21T23:52:55.025Z,22.60
2019-05-21T23:55:44.566Z,26.00
2019-05-21T23:58:34.709Z,25.88
